sim
Sign-in with your pilot id or email,
or register
Callsign
Passwort

Schedule Details

Flight Number: DLH2080 (1)
Departure: Munich Airport (EDDM) at 17:45
Arrival: Hamburg Airport (EDDH) at 19:05
Route: Lufthansa Passenger Schedule. Enter filed route here before submitting Pirep.

Weather Information
Getting current METAR information for EDDM 201550Z 04005KT CAVOK 21/10 Q1015 NOSIG
Getting current METAR information for EDDH 201550Z 05006KT 010V070 CAVOK 21/06 Q1019 NOSIG

Schedule Frequency

Route Map